sensor_id;sensor_type;location;lat;lon;timestamp;P1;durP1;ratioP1;P2;durP2;ratioP2
5762;SDS011;2906;53.282;9.508;2023-06-10T00:00:07;10.13;;;3.78;;
5762;SDS011;2906;53.282;9.508;2023-06-10T00:01:13;7.65;;;3.40;;
5762;SDS011;2906;53.282;9.508;2023-06-10T00:02:14;13.80;;;3.95;;
5762;SDS011;2906;53.282;9.508;2023-06-10T00:03:17;13.68;;;3.60;;
5762;SDS011;2906;53.282;9.508;2023-06-10T00:04:19;13.32;;;4.35;;
5762;SDS011;2906;53.282;9.508;2023-06-10T00:05:22;9.95;;;3.17;;
5762;SDS011;2906;53.282;9.508;2023-06-10T00:06:23;13.10;;;3.97;;
5762;SDS011;2906;53.282;9.508;2023-06-10T00:07:26;9.70;;;3.92;;
5762;SDS011;2906;53.282;9.508;2023-06-10T00:08:27;14.45;;;3.75;;
5762;SDS011;2906;53.282;9.508;2023-06-10T00:09:31;11.25;;;3.05;;
5762;SDS011;2906;53.282;9.508;2023-06-10T00:10:34;10.70;;;4.43;;
5762;SDS011;2906;53.282;9.508;2023-06-10T00:11:37;9.43;;;3.13;;
5762;SDS011;2906;53.282;9.508;2023-06-10T00:12:39;8.65;;;3.60;;
5762;SDS011;2906;53.282;9.508;2023-06-10T00:13:42;10.95;;;3.80;;
5762;SDS011;2906;53.282;9.508;2023-06-10T00:14:43;10.93;;;3.55;;
5762;SDS011;2906;53.282;9.508;2023-06-10T00:15:48;8.43;;;3.20;;
5762;SDS011;2906;53.282;9.508;2023-06-10T00:16:49;13.20;;;3.65;;
5762;SDS011;2906;53.282;9.508;2023-06-10T00:17:52;7.60;;;3.42;;
5762;SDS011;2906;53.282;9.508;2023-06-10T00:18:55;12.95;;;3.50;;
5762;SDS011;2906;53.282;9.508;2023-06-10T00:20:03;7.80;;;3.55;;
5762;SDS011;2906;53.282;9.508;2023-06-10T00:21:09;9.52;;;3.47;;
5762;SDS011;2906;53.282;9.508;2023-06-10T00:22:13;10.93;;;3.38;;
5762;SDS011;2906;53.282;9.508;2023-06-10T00:23:15;16.92;;;3.65;;
5762;SDS011;2906;53.282;9.508;2023-06-10T00:24:18;11.30;;;2.90;;
5762;SDS011;2906;53.282;9.508;2023-06-10T00:25:19;8.70;;;3.20;;
5762;SDS011;2906;53.282;9.508;2023-06-10T00:26:23;11.20;;;3.83;;
5762;SDS011;2906;53.282;9.508;2023-06-10T00:27:26;13.40;;;4.20;;
5762;SDS011;2906;53.282;9.508;2023-06-10T00:28:35;9.73;;;3.33;;
5762;SDS011;2906;53.282;9.508;2023-06-10T00:29:36;26.33;;;4.47;;
5762;SDS011;2906;53.282;9.508;2023-06-10T00:30:39;8.07;;;3.70;;
5762;SDS011;2906;53.282;9.508;2023-06-10T00:31:41;11.95;;;4.72;;
5762;SDS011;2906;53.282;9.508;2023-06-10T00:32:44;14.10;;;4.50;;
5762;SDS011;2906;53.282;9.508;2023-06-10T00:33:46;12.75;;;4.15;;
5762;SDS011;2906;53.282;9.508;2023-06-10T00:34:48;13.90;;;4.00;;
5762;SDS011;2906;53.282;9.508;2023-06-10T00:35:50;11.73;;;3.83;;
5762;SDS011;2906;53.282;9.508;2023-06-10T00:36:53;9.90;;;3.60;;
5762;SDS011;2906;53.282;9.508;2023-06-10T00:37:54;23.40;;;4.47;;
5762;SDS011;2906;53.282;9.508;2023-06-10T00:38:57;12.75;;;4.05;;
5762;SDS011;2906;53.282;9.508;2023-06-10T00:39:59;15.18;;;4.55;;
5762;SDS011;2906;53.282;9.508;2023-06-10T00:41:01;19.25;;;4.60;;
5762;SDS011;2906;53.282;9.508;2023-06-10T00:42:07;14.02;;;4.38;;
5762;SDS011;2906;53.282;9.508;2023-06-10T00:43:10;10.30;;;4.20;;
5762;SDS011;2906;53.282;9.508;2023-06-10T00:44:12;11.90;;;4.07;;
5762;SDS011;2906;53.282;9.508;2023-06-10T00:45:17;14.55;;;4.10;;
5762;SDS011;2906;53.282;9.508;2023-06-10T00:46:19;10.43;;;3.70;;
5762;SDS011;2906;53.282;9.508;2023-06-10T00:47:22;18.13;;;4.25;;
5762;SDS011;2906;53.282;9.508;2023-06-10T00:48:24;10.88;;;3.40;;
5762;SDS011;2906;53.282;9.508;2023-06-10T00:49:26;14.68;;;3.55;;
5762;SDS011;2906;53.282;9.508;2023-06-10T00:50:28;13.23;;;4.10;;
5762;SDS011;2906;53.282;9.508;2023-06-10T00:51:31;16.83;;;4.80;;
5762;SDS011;2906;53.282;9.508;2023-06-10T00:52:32;15.70;;;4.75;;
5762;SDS011;2906;53.282;9.508;2023-06-10T00:53:40;11.02;;;3.83;;
5762;SDS011;2906;53.282;9.508;2023-06-10T00:54:42;11.90;;;4.65;;
5762;SDS011;2906;53.282;9.508;2023-06-10T00:55:44;14.90;;;4.30;;
5762;SDS011;2906;53.282;9.508;2023-06-10T00:56:45;12.10;;;3.90;;
5762;SDS011;2906;53.282;9.508;2023-06-10T00:57:50;13.90;;;4.40;;
5762;SDS011;2906;53.282;9.508;2023-06-10T00:58:52;15.20;;;3.65;;
5762;SDS011;2906;53.282;9.508;2023-06-10T00:59:54;9.98;;;4.05;;
5762;SDS011;2906;53.282;9.508;2023-06-10T01:00:56;13.05;;;3.83;;
5762;SDS011;2906;53.282;9.508;2023-06-10T01:01:59;14.35;;;4.45;;
5762;SDS011;2906;53.282;9.508;2023-06-10T01:03:02;11.80;;;3.70;;
5762;SDS011;2906;53.282;9.508;2023-06-10T01:04:08;12.45;;;4.03;;
5762;SDS011;2906;53.282;9.508;2023-06-10T01:05:11;13.05;;;4.00;;
5762;SDS011;2906;53.282;9.508;2023-06-10T01:06:17;13.35;;;4.07;;
5762;SDS011;2906;53.282;9.508;2023-06-10T01:07:22;12.88;;;4.35;;
5762;SDS011;2906;53.282;9.508;2023-06-10T01:08:27;17.05;;;4.40;;
5762;SDS011;2906;53.282;9.508;2023-06-10T01:09:31;9.93;;;3.72;;
5762;SDS011;2906;53.282;9.508;2023-06-10T01:10:37;18.63;;;4.25;;
5762;SDS011;2906;53.282;9.508;2023-06-10T01:11:40;16.52;;;4.72;;
5762;SDS011;2906;53.282;9.508;2023-06-10T01:12:45;13.23;;;3.83;;
5762;SDS011;2906;53.282;9.508;2023-06-10T01:13:50;15.73;;;4.40;;
5762;SDS011;2906;53.282;9.508;2023-06-10T01:14:53;14.43;;;4.30;;
5762;SDS011;2906;53.282;9.508;2023-06-10T01:15:55;12.23;;;4.03;;
5762;SDS011;2906;53.282;9.508;2023-06-10T01:16:58;13.73;;;4.40;;
5762;SDS011;2906;53.282;9.508;2023-06-10T01:18:01;11.30;;;3.90;;
5762;SDS011;2906;53.282;9.508;2023-06-10T01:19:04;11.82;;;4.35;;
5762;SDS011;2906;53.282;9.508;2023-06-10T01:20:07;18.98;;;4.47;;
5762;SDS011;2906;53.282;9.508;2023-06-10T01:21:15;33.13;;;4.57;;
5762;SDS011;2906;53.282;9.508;2023-06-10T01:22:17;12.48;;;4.15;;
5762;SDS011;2906;53.282;9.508;2023-06-10T01:23:20;9.95;;;4.15;;
5762;SDS011;2906;53.282;9.508;2023-06-10T01:24:22;12.27;;;4.22;;
5762;SDS011;2906;53.282;9.508;2023-06-10T01:25:25;10.93;;;3.85;;
5762;SDS011;2906;53.282;9.508;2023-06-10T01:26:28;11.10;;;5.00;;
5762;SDS011;2906;53.282;9.508;2023-06-10T01:27:32;15.25;;;3.75;;
5762;SDS011;2906;53.282;9.508;2023-06-10T01:28:47;21.10;;;5.25;;
5762;SDS011;2906;53.282;9.508;2023-06-10T01:29:58;14.18;;;5.13;;
5762;SDS011;2906;53.282;9.508;2023-06-10T01:31:06;14.13;;;3.83;;
5762;SDS011;2906;53.282;9.508;2023-06-10T01:32:11;16.02;;;3.90;;
5762;SDS011;2906;53.282;9.508;2023-06-10T01:33:17;16.25;;;5.45;;
5762;SDS011;2906;53.282;9.508;2023-06-10T01:34:20;13.77;;;4.63;;
5762;SDS011;2906;53.282;9.508;2023-06-10T01:35:23;10.65;;;4.40;;
5762;SDS011;2906;53.282;9.508;2023-06-10T01:36:28;8.77;;;3.95;;
5762;SDS011;2906;53.282;9.508;2023-06-10T01:37:30;16.92;;;4.82;;
5762;SDS011;2906;53.282;9.508;2023-06-10T01:38:36;14.27;;;4.03;;
5762;SDS011;2906;53.282;9.508;2023-06-10T01:39:40;6.32;;;3.53;;
5762;SDS011;2906;53.282;9.508;2023-06-10T01:40:42;16.60;;;4.50;;
5762;SDS011;2906;53.282;9.508;2023-06-10T01:41:44;15.80;;;4.93;;
5762;SDS011;2906;53.282;9.508;2023-06-10T01:42:47;15.75;;;4.65;;
5762;SDS011;2906;53.282;9.508;2023-06-10T01:43:48;7.72;;;4.30;;
5762;SDS011;2906;53.282;9.508;2023-06-10T01:44:51;10.00;;;4.70;;
5762;SDS011;2906;53.282;9.508;2023-06-10T01:45:52;10.27;;;4.65;;
5762;SDS011;2906;53.282;9.508;2023-06-10T01:46:55;15.68;;;5.50;;
5762;SDS011;2906;53.282;9.508;2023-06-10T01:47:56;19.67;;;4.75;;
5762;SDS011;2906;53.282;9.508;2023-06-10T01:48:59;13.32;;;4.30;;
5762;SDS011;2906;53.282;9.508;2023-06-10T01:50:01;12.00;;;4.15;;
5762;SDS011;2906;53.282;9.508;2023-06-10T01:51:03;15.43;;;4.05;;
5762;SDS011;2906;53.282;9.508;2023-06-10T01:52:07;12.55;;;4.43;;
5762;SDS011;2906;53.282;9.508;2023-06-10T01:53:09;7.40;;;3.75;;
5762;SDS011;2906;53.282;9.508;2023-06-10T01:54:11;12.25;;;4.20;;
5762;SDS011;2906;53.282;9.508;2023-06-10T01:55:14;14.50;;;4.00;;
5762;SDS011;2906;53.282;9.508;2023-06-10T01:56:17;11.85;;;3.92;;
5762;SDS011;2906;53.282;9.508;2023-06-10T01:57:20;13.73;;;4.45;;
5762;SDS011;2906;53.282;9.508;2023-06-10T01:58:22;10.13;;;4.25;;
5762;SDS011;2906;53.282;9.508;2023-06-10T01:59:24;12.60;;;4.75;;
5762;SDS011;2906;53.282;9.508;2023-06-10T02:00:26;19.13;;;4.65;;
5762;SDS011;2906;53.282;9.508;2023-06-10T02:01:28;13.88;;;4.45;;
5762;SDS011;2906;53.282;9.508;2023-06-10T02:02:30;13.20;;;4.72;;
5762;SDS011;2906;53.282;9.508;2023-06-10T02:03:32;17.45;;;4.60;;
5762;SDS011;2906;53.282;9.508;2023-06-10T02:04:34;13.00;;;4.00;;
5762;SDS011;2906;53.282;9.508;2023-06-10T02:05:37;9.90;;;4.43;;
5762;SDS011;2906;53.282;9.508;2023-06-10T02:06:38;7.72;;;3.65;;
5762;SDS011;2906;53.282;9.508;2023-06-10T02:07:43;12.95;;;4.93;;
5762;SDS011;2906;53.282;9.508;2023-06-10T02:08:44;11.25;;;3.72;;
5762;SDS011;2906;53.282;9.508;2023-06-10T02:09:47;15.82;;;5.28;;
5762;SDS011;2906;53.282;9.508;2023-06-10T02:10:48;20.65;;;4.50;;
5762;SDS011;2906;53.282;9.508;2023-06-10T02:11:51;14.93;;;4.68;;
5762;SDS011;2906;53.282;9.508;2023-06-10T02:12:53;12.27;;;4.13;;
5762;SDS011;2906;53.282;9.508;2023-06-10T02:13:55;9.88;;;3.70;;
5762;SDS011;2906;53.282;9.508;2023-06-10T02:14:59;11.77;;;3.85;;
5762;SDS011;2906;53.282;9.508;2023-06-10T02:16:01;10.32;;;3.78;;
5762;SDS011;2906;53.282;9.508;2023-06-10T02:17:04;8.95;;;4.30;;
5762;SDS011;2906;53.282;9.508;2023-06-10T02:18:05;13.77;;;4.82;;
5762;SDS011;2906;53.282;9.508;2023-06-10T02:19:08;12.48;;;4.32;;
5762;SDS011;2906;53.282;9.508;2023-06-10T02:20:09;9.82;;;3.80;;
5762;SDS011;2906;53.282;9.508;2023-06-10T02:21:13;13.25;;;4.32;;
5762;SDS011;2906;53.282;9.508;2023-06-10T02:22:17;7.82;;;3.08;;
5762;SDS011;2906;53.282;9.508;2023-06-10T02:23:21;12.48;;;4.60;;
5762;SDS011;2906;53.282;9.508;2023-06-10T02:24:23;9.95;;;4.13;;
5762;SDS011;2906;53.282;9.508;2023-06-10T02:25:25;11.43;;;4.45;;
5762;SDS011;2906;53.282;9.508;2023-06-10T02:26:27;11.50;;;4.30;;
5762;SDS011;2906;53.282;9.508;2023-06-10T02:27:31;9.65;;;3.90;;
5762;SDS011;2906;53.282;9.508;2023-06-10T02:28:33;18.67;;;4.22;;
5762;SDS011;2906;53.282;9.508;2023-06-10T02:29:35;9.35;;;4.60;;
5762;SDS011;2906;53.282;9.508;2023-06-10T02:30:38;13.18;;;4.40;;
5762;SDS011;2906;53.282;9.508;2023-06-10T02:31:41;13.85;;;4.13;;
5762;SDS011;2906;53.282;9.508;2023-06-10T02:32:43;14.15;;;3.83;;
5762;SDS011;2906;53.282;9.508;2023-06-10T02:33:47;12.60;;;4.28;;
5762;SDS011;2906;53.282;9.508;2023-06-10T02:34:49;10.45;;;4.32;;
5762;SDS011;2906;53.282;9.508;2023-06-10T02:35:51;7.70;;;3.92;;
5762;SDS011;2906;53.282;9.508;2023-06-10T02:36:53;9.88;;;3.50;;
5762;SDS011;2906;53.282;9.508;2023-06-10T02:37:56;12.60;;;3.70;;
5762;SDS011;2906;53.282;9.508;2023-06-10T02:38:58;9.88;;;3.58;;
5762;SDS011;2906;53.282;9.508;2023-06-10T02:40:01;11.05;;;3.58;;
5762;SDS011;2906;53.282;9.508;2023-06-10T02:41:03;12.93;;;3.72;;
5762;SDS011;2906;53.282;9.508;2023-06-10T02:42:06;7.93;;;3.55;;
5762;SDS011;2906;53.282;9.508;2023-06-10T02:43:08;10.38;;;3.42;;
5762;SDS011;2906;53.282;9.508;2023-06-10T02:44:11;11.18;;;3.83;;
5762;SDS011;2906;53.282;9.508;2023-06-10T02:45:12;13.05;;;4.53;;
5762;SDS011;2906;53.282;9.508;2023-06-10T02:46:15;12.90;;;4.53;;
5762;SDS011;2906;53.282;9.508;2023-06-10T02:47:16;13.55;;;3.67;;
5762;SDS011;2906;53.282;9.508;2023-06-10T02:48:19;14.93;;;4.18;;
5762;SDS011;2906;53.282;9.508;2023-06-10T02:49:20;8.73;;;4.25;;
5762;SDS011;2906;53.282;9.508;2023-06-10T02:50:23;14.23;;;4.13;;
5762;SDS011;2906;53.282;9.508;2023-06-10T02:51:25;14.40;;;4.53;;
5762;SDS011;2906;53.282;9.508;2023-06-10T02:52:27;12.25;;;4.05;;
5762;SDS011;2906;53.282;9.508;2023-06-10T02:53:28;9.10;;;3.47;;
5762;SDS011;2906;53.282;9.508;2023-06-10T02:54:32;18.42;;;4.95;;
5762;SDS011;2906;53.282;9.508;2023-06-10T02:55:36;8.93;;;3.28;;
5762;SDS011;2906;53.282;9.508;2023-06-10T02:56:40;10.95;;;3.80;;
5762;SDS011;2906;53.282;9.508;2023-06-10T02:57:42;9.23;;;3.50;;
5762;SDS011;2906;53.282;9.508;2023-06-10T02:58:44;10.65;;;4.00;;
5762;SDS011;2906;53.282;9.508;2023-06-10T02:59:47;12.75;;;3.40;;
5762;SDS011;2906;53.282;9.508;2023-06-10T03:00:52;7.90;;;2.95;;
5762;SDS011;2906;53.282;9.508;2023-06-10T03:01:54;10.05;;;3.63;;
5762;SDS011;2906;53.282;9.508;2023-06-10T03:02:56;12.48;;;3.88;;
5762;SDS011;2906;53.282;9.508;2023-06-10T03:03:58;13.00;;;3.40;;
5762;SDS011;2906;53.282;9.508;2023-06-10T03:05:01;18.92;;;3.47;;
5762;SDS011;2906;53.282;9.508;2023-06-10T03:06:02;15.23;;;4.15;;
5762;SDS011;2906;53.282;9.508;2023-06-10T03:07:05;14.85;;;3.40;;
5762;SDS011;2906;53.282;9.508;2023-06-10T03:08:07;12.77;;;3.70;;
5762;SDS011;2906;53.282;9.508;2023-06-10T03:09:09;9.63;;;3.55;;
5762;SDS011;2906;53.282;9.508;2023-06-10T03:10:12;13.35;;;3.25;;
5762;SDS011;2906;53.282;9.508;2023-06-10T03:11:16;9.80;;;2.75;;
5762;SDS011;2906;53.282;9.508;2023-06-10T03:12:19;10.05;;;3.10;;
5762;SDS011;2906;53.282;9.508;2023-06-10T03:13:22;6.75;;;3.15;;
5762;SDS011;2906;53.282;9.508;2023-06-10T03:14:24;13.57;;;4.18;;
5762;SDS011;2906;53.282;9.508;2023-06-10T03:15:27;11.35;;;4.32;;
5762;SDS011;2906;53.282;9.508;2023-06-10T03:16:29;12.15;;;4.30;;
5762;SDS011;2906;53.282;9.508;2023-06-10T03:17:31;13.70;;;3.47;;
5762;SDS011;2906;53.282;9.508;2023-06-10T03:18:33;22.10;;;3.60;;
5762;SDS011;2906;53.282;9.508;2023-06-10T03:19:35;8.63;;;2.97;;
5762;SDS011;2906;53.282;9.508;2023-06-10T03:20:38;9.38;;;3.40;;
5762;SDS011;2906;53.282;9.508;2023-06-10T03:21:43;10.10;;;3.20;;
5762;SDS011;2906;53.282;9.508;2023-06-10T03:22:45;9.48;;;3.95;;
5762;SDS011;2906;53.282;9.508;2023-06-10T03:23:47;7.38;;;2.92;;
5762;SDS011;2906;53.282;9.508;2023-06-10T03:24:49;10.20;;;3.20;;
5762;SDS011;2906;53.282;9.508;2023-06-10T03:25:53;13.63;;;5.57;;
5762;SDS011;2906;53.282;9.508;2023-06-10T03:26:55;11.10;;;3.70;;
5762;SDS011;2906;53.282;9.508;2023-06-10T03:27:57;12.38;;;3.22;;
5762;SDS011;2906;53.282;9.508;2023-06-10T03:28:59;8.95;;;3.00;;
5762;SDS011;2906;53.282;9.508;2023-06-10T03:30:01;10.98;;;3.30;;
5762;SDS011;2906;53.282;9.508;2023-06-10T03:31:03;9.63;;;3.90;;
5762;SDS011;2906;53.282;9.508;2023-06-10T03:32:06;11.02;;;3.30;;
5762;SDS011;2906;53.282;9.508;2023-06-10T03:33:07;12.05;;;3.33;;
5762;SDS011;2906;53.282;9.508;2023-06-10T03:34:14;9.20;;;3.35;;
5762;SDS011;2906;53.282;9.508;2023-06-10T03:35:15;7.97;;;3.00;;
5762;SDS011;2906;53.282;9.508;2023-06-10T03:36:18;11.25;;;3.28;;
5762;SDS011;2906;53.282;9.508;2023-06-10T03:37:20;18.35;;;3.33;;
5762;SDS011;2906;53.282;9.508;2023-06-10T03:38:22;7.95;;;3.38;;
5762;SDS011;2906;53.282;9.508;2023-06-10T03:39:25;9.32;;;3.50;;
5762;SDS011;2906;53.282;9.508;2023-06-10T03:40:29;8.13;;;3.10;;
5762;SDS011;2906;53.282;9.508;2023-06-10T03:41:33;9.50;;;3.50;;
5762;SDS011;2906;53.282;9.508;2023-06-10T03:42:34;12.88;;;3.58;;
5762;SDS011;2906;53.282;9.508;2023-06-10T03:43:37;10.48;;;3.30;;
5762;SDS011;2906;53.282;9.508;2023-06-10T03:44:40;10.77;;;3.60;;
5762;SDS011;2906;53.282;9.508;2023-06-10T03:45:43;10.38;;;3.40;;
5762;SDS011;2906;53.282;9.508;2023-06-10T03:46:45;8.25;;;3.03;;
5762;SDS011;2906;53.282;9.508;2023-06-10T03:47:48;11.52;;;3.53;;
5762;SDS011;2906;53.282;9.508;2023-06-10T03:48:49;12.07;;;2.90;;
5762;SDS011;2906;53.282;9.508;2023-06-10T03:49:52;6.35;;;3.20;;
5762;SDS011;2906;53.282;9.508;2023-06-10T03:50:53;16.25;;;3.30;;
5762;SDS011;2906;53.282;9.508;2023-06-10T03:51:56;17.17;;;4.38;;
5762;SDS011;2906;53.282;9.508;2023-06-10T03:52:57;10.68;;;3.35;;
5762;SDS011;2906;53.282;9.508;2023-06-10T03:54:00;7.22;;;2.65;;
5762;SDS011;2906;53.282;9.508;2023-06-10T03:55:01;10.93;;;3.28;;
5762;SDS011;2906;53.282;9.508;2023-06-10T03:56:03;9.75;;;3.20;;
5762;SDS011;2906;53.282;9.508;2023-06-10T03:57:06;8.57;;;3.60;;
5762;SDS011;2906;53.282;9.508;2023-06-10T03:58:08;15.27;;;4.15;;
5762;SDS011;2906;53.282;9.508;2023-06-10T03:59:13;11.00;;;3.40;;
5762;SDS011;2906;53.282;9.508;2023-06-10T04:00:15;12.13;;;3.00;;
5762;SDS011;2906;53.282;9.508;2023-06-10T04:01:17;12.85;;;2.80;;
5762;SDS011;2906;53.282;9.508;2023-06-10T04:02:21;12.85;;;3.33;;
5762;SDS011;2906;53.282;9.508;2023-06-10T04:03:22;9.20;;;2.95;;
5762;SDS011;2906;53.282;9.508;2023-06-10T04:04:26;11.60;;;4.15;;
5762;SDS011;2906;53.282;9.508;2023-06-10T04:05:27;13.27;;;3.20;;
5762;SDS011;2906;53.282;9.508;2023-06-10T04:06:30;8.40;;;2.92;;
5762;SDS011;2906;53.282;9.508;2023-06-10T04:07:31;12.55;;;3.80;;
5762;SDS011;2906;53.282;9.508;2023-06-10T04:08:34;6.00;;;3.10;;
5762;SDS011;2906;53.282;9.508;2023-06-10T04:09:36;13.45;;;4.07;;
5762;SDS011;2906;53.282;9.508;2023-06-10T04:10:39;10.25;;;3.10;;
5762;SDS011;2906;53.282;9.508;2023-06-10T04:11:40;5.88;;;2.65;;
5762;SDS011;2906;53.282;9.508;2023-06-10T04:12:43;11.60;;;3.40;;
5762;SDS011;2906;53.282;9.508;2023-06-10T04:13:45;9.23;;;3.15;;
5762;SDS011;2906;53.282;9.508;2023-06-10T04:14:47;14.00;;;3.70;;
5762;SDS011;2906;53.282;9.508;2023-06-10T04:15:49;7.18;;;3.10;;
5762;SDS011;2906;53.282;9.508;2023-06-10T04:16:51;15.10;;;4.22;;
5762;SDS011;2906;53.282;9.508;2023-06-10T04:17:52;11.85;;;3.53;;
5762;SDS011;2906;53.282;9.508;2023-06-10T04:18:55;7.65;;;3.00;;
5762;SDS011;2906;53.282;9.508;2023-06-10T04:19:56;13.95;;;3.40;;
5762;SDS011;2906;53.282;9.508;2023-06-10T04:20:59;12.27;;;3.30;;
5762;SDS011;2906;53.282;9.508;2023-06-10T04:22:00;15.85;;;3.83;;
5762;SDS011;2906;53.282;9.508;2023-06-10T04:23:03;7.20;;;3.10;;
5762;SDS011;2906;53.282;9.508;2023-06-10T04:24:04;15.55;;;3.08;;
5762;SDS011;2906;53.282;9.508;2023-06-10T04:25:08;11.02;;;2.88;;
5762;SDS011;2906;53.282;9.508;2023-06-10T04:26:10;18.63;;;4.13;;
5762;SDS011;2906;53.282;9.508;2023-06-10T04:27:13;15.20;;;3.28;;
5762;SDS011;2906;53.282;9.508;2023-06-10T04:28:15;4.63;;;2.97;;
5762;SDS011;2906;53.282;9.508;2023-06-10T04:29:18;9.50;;;2.78;;
5762;SDS011;2906;53.282;9.508;2023-06-10T04:30:19;13.18;;;3.28;;
5762;SDS011;2906;53.282;9.508;2023-06-10T04:31:22;12.95;;;3.58;;
5762;SDS011;2906;53.282;9.508;2023-06-10T04:32:23;9.48;;;2.60;;
5762;SDS011;2906;53.282;9.508;2023-06-10T04:33:26;11.77;;;3.47;;
5762;SDS011;2906;53.282;9.508;2023-06-10T04:34:28;13.20;;;2.70;;
5762;SDS011;2906;53.282;9.508;2023-06-10T04:35:31;10.40;;;3.08;;
5762;SDS011;2906;53.282;9.508;2023-06-10T04:36:32;10.00;;;2.80;;
5762;SDS011;2906;53.282;9.508;2023-06-10T04:37:35;11.68;;;3.30;;
5762;SDS011;2906;53.282;9.508;2023-06-10T04:38:38;9.13;;;2.92;;
5762;SDS011;2906;53.282;9.508;2023-06-10T04:39:40;15.02;;;3.33;;
5762;SDS011;2906;53.282;9.508;2023-06-10T04:40:42;13.95;;;3.92;;
5762;SDS011;2906;53.282;9.508;2023-06-10T04:41:44;12.30;;;3.45;;
5762;SDS011;2906;53.282;9.508;2023-06-10T04:42:46;11.57;;;3.28;;
5762;SDS011;2906;53.282;9.508;2023-06-10T04:43:50;8.77;;;2.95;;
5762;SDS011;2906;53.282;9.508;2023-06-10T04:44:51;7.90;;;3.05;;
5762;SDS011;2906;53.282;9.508;2023-06-10T04:45:53;7.10;;;2.85;;
5762;SDS011;2906;53.282;9.508;2023-06-10T04:46:55;9.32;;;2.97;;
5762;SDS011;2906;53.282;9.508;2023-06-10T04:47:57;19.15;;;3.13;;
5762;SDS011;2906;53.282;9.508;2023-06-10T04:48:59;7.95;;;3.42;;
5762;SDS011;2906;53.282;9.508;2023-06-10T04:50:01;10.80;;;3.15;;
5762;SDS011;2906;53.282;9.508;2023-06-10T04:51:03;12.43;;;3.10;;
5762;SDS011;2906;53.282;9.508;2023-06-10T04:52:06;7.00;;;3.10;;
5762;SDS011;2906;53.282;9.508;2023-06-10T04:53:08;8.32;;;3.25;;
5762;SDS011;2906;53.282;9.508;2023-06-10T04:54:10;21.77;;;2.97;;
5762;SDS011;2906;53.282;9.508;2023-06-10T04:55:11;7.40;;;2.60;;
5762;SDS011;2906;53.282;9.508;2023-06-10T04:56:16;12.48;;;3.30;;
5762;SDS011;2906;53.282;9.508;2023-06-10T04:57:17;15.30;;;3.28;;
5762;SDS011;2906;53.282;9.508;2023-06-10T04:58:20;10.85;;;3.10;;
5762;SDS011;2906;53.282;9.508;2023-06-10T04:59:23;11.07;;;3.00;;
5762;SDS011;2906;53.282;9.508;2023-06-10T05:00:25;8.50;;;2.97;;
5762;SDS011;2906;53.282;9.508;2023-06-10T05:01:27;8.02;;;2.85;;
5762;SDS011;2906;53.282;9.508;2023-06-10T05:02:29;14.18;;;3.08;;
5762;SDS011;2906;53.282;9.508;2023-06-10T05:03:30;11.90;;;3.13;;
5762;SDS011;2906;53.282;9.508;2023-06-10T05:04:33;7.00;;;2.50;;
5762;SDS011;2906;53.282;9.508;2023-06-10T05:05:34;11.25;;;2.70;;
5762;SDS011;2906;53.282;9.508;2023-06-10T05:06:37;14.07;;;2.92;;
5762;SDS011;2906;53.282;9.508;2023-06-10T05:07:38;7.53;;;2.80;;
5762;SDS011;2906;53.282;9.508;2023-06-10T05:08:40;9.25;;;2.65;;
5762;SDS011;2906;53.282;9.508;2023-06-10T05:09:42;6.57;;;2.80;;
5762;SDS011;2906;53.282;9.508;2023-06-10T05:10:45;10.55;;;3.10;;
5762;SDS011;2906;53.282;9.508;2023-06-10T05:11:46;15.35;;;3.20;;
5762;SDS011;2906;53.282;9.508;2023-06-10T05:12:48;10.52;;;3.33;;
5762;SDS011;2906;53.282;9.508;2023-06-10T05:13:50;10.90;;;2.95;;
5762;SDS011;2906;53.282;9.508;2023-06-10T05:14:53;11.45;;;3.20;;
5762;SDS011;2906;53.282;9.508;2023-06-10T05:15:57;10.15;;;3.03;;
5762;SDS011;2906;53.282;9.508;2023-06-10T05:16:59;7.55;;;2.85;;
5762;SDS011;2906;53.282;9.508;2023-06-10T05:18:00;26.83;;;3.00;;
5762;SDS011;2906;53.282;9.508;2023-06-10T05:19:03;9.27;;;2.88;;
5762;SDS011;2906;53.282;9.508;2023-06-10T05:20:07;9.15;;;3.05;;
5762;SDS011;2906;53.282;9.508;2023-06-10T05:21:09;10.10;;;2.70;;
5762;SDS011;2906;53.282;9.508;2023-06-10T05:22:11;10.60;;;2.83;;
5762;SDS011;2906;53.282;9.508;2023-06-10T05:23:16;5.05;;;2.78;;
5762;SDS011;2906;53.282;9.508;2023-06-10T05:24:17;9.60;;;3.35;;
5762;SDS011;2906;53.282;9.508;2023-06-10T05:25:19;9.48;;;3.00;;
5762;SDS011;2906;53.282;9.508;2023-06-10T05:26:21;12.85;;;3.22;;
5762;SDS011;2906;53.282;9.508;2023-06-10T05:27:23;9.35;;;2.97;;
5762;SDS011;2906;53.282;9.508;2023-06-10T05:28:25;9.80;;;3.10;;
5762;SDS011;2906;53.282;9.508;2023-06-10T05:29:27;6.38;;;2.83;;
5762;SDS011;2906;53.282;9.508;2023-06-10T05:30:30;10.40;;;2.90;;
5762;SDS011;2906;53.282;9.508;2023-06-10T05:31:33;8.95;;;2.80;;
5762;SDS011;2906;53.282;9.508;2023-06-10T05:32:34;12.93;;;2.95;;
5762;SDS011;2906;53.282;9.508;2023-06-10T05:33:37;12.02;;;3.30;;
5762;SDS011;2906;53.282;9.508;2023-06-10T05:34:38;8.25;;;3.13;;
5762;SDS011;2906;53.282;9.508;2023-06-10T05:35:40;9.57;;;2.80;;
5762;SDS011;2906;53.282;9.508;2023-06-10T05:36:42;6.93;;;2.45;;
5762;SDS011;2906;53.282;9.508;2023-06-10T05:39:06;10.32;;;2.70;;
5762;SDS011;2906;53.282;9.508;2023-06-10T05:39:30;11.25;;;3.25;;
5762;SDS011;2906;53.282;9.508;2023-06-10T05:40:32;9.32;;;2.70;;
5762;SDS011;2906;53.282;9.508;2023-06-10T05:41:34;8.30;;;2.95;;
5762;SDS011;2906;53.282;9.508;2023-06-10T05:42:36;12.90;;;3.10;;
5762;SDS011;2906;53.282;9.508;2023-06-10T05:43:37;16.17;;;3.03;;
5762;SDS011;2906;53.282;9.508;2023-06-10T05:44:40;7.15;;;2.78;;
5762;SDS011;2906;53.282;9.508;2023-06-10T05:45:42;6.68;;;2.47;;
5762;SDS011;2906;53.282;9.508;2023-06-10T05:46:45;9.88;;;2.60;;
5762;SDS011;2906;53.282;9.508;2023-06-10T05:47:47;9.30;;;3.03;;
5762;SDS011;2906;53.282;9.508;2023-06-10T05:48:49;6.57;;;2.50;;
5762;SDS011;2906;53.282;9.508;2023-06-10T05:49:50;6.63;;;3.17;;
5762;SDS011;2906;53.282;9.508;2023-06-10T05:50:53;15.68;;;3.28;;
5762;SDS011;2906;53.282;9.508;2023-06-10T05:51:54;8.70;;;3.13;;
5762;SDS011;2906;53.282;9.508;2023-06-10T05:52:59;10.35;;;2.95;;
5762;SDS011;2906;53.282;9.508;2023-06-10T05:54:00;16.88;;;3.35;;
5762;SDS011;2906;53.282;9.508;2023-06-10T05:55:03;8.18;;;2.92;;
5762;SDS011;2906;53.282;9.508;2023-06-10T05:56:05;8.45;;;2.38;;
5762;SDS011;2906;53.282;9.508;2023-06-10T05:58:41;6.57;;;2.92;;
5762;SDS011;2906;53.282;9.508;2023-06-10T06:00:03;8.00;;;2.45;;
5762;SDS011;2906;53.282;9.508;2023-06-10T06:01:06;13.85;;;3.55;;
5762;SDS011;2906;53.282;9.508;2023-06-10T06:02:08;15.38;;;3.28;;
5762;SDS011;2906;53.282;9.508;2023-06-10T06:03:10;12.27;;;3.30;;
5762;SDS011;2906;53.282;9.508;2023-06-10T06:04:12;10.40;;;3.35;;
5762;SDS011;2906;53.282;9.508;2023-06-10T06:05:14;12.07;;;3.72;;
5762;SDS011;2906;53.282;9.508;2023-06-10T06:06:16;7.82;;;3.10;;
5762;SDS011;2906;53.282;9.508;2023-06-10T06:07:20;9.77;;;2.83;;
5762;SDS011;2906;53.282;9.508;2023-06-10T06:08:22;8.45;;;3.20;;
5762;SDS011;2906;53.282;9.508;2023-06-10T06:09:24;8.60;;;3.30;;
5762;SDS011;2906;53.282;9.508;2023-06-10T06:10:26;13.27;;;3.05;;
5762;SDS011;2906;53.282;9.508;2023-06-10T06:11:28;10.23;;;2.88;;
5762;SDS011;2906;53.282;9.508;2023-06-10T06:12:30;9.02;;;3.08;;
5762;SDS011;2906;53.282;9.508;2023-06-10T06:13:32;10.45;;;2.83;;
5762;SDS011;2906;53.282;9.508;2023-06-10T06:14:37;9.70;;;2.85;;
5762;SDS011;2906;53.282;9.508;2023-06-10T06:15:40;14.27;;;2.85;;
5762;SDS011;2906;53.282;9.508;2023-06-10T06:16:43;10.68;;;3.03;;
5762;SDS011;2906;53.282;9.508;2023-06-10T06:17:45;9.07;;;2.92;;
5762;SDS011;2906;53.282;9.508;2023-06-10T06:18:46;8.65;;;2.25;;
5762;SDS011;2906;53.282;9.508;2023-06-10T06:19:49;8.48;;;2.58;;
5762;SDS011;2906;53.282;9.508;2023-06-10T06:20:50;11.00;;;2.85;;
5762;SDS011;2906;53.282;9.508;2023-06-10T06:21:53;8.20;;;2.72;;
5762;SDS011;2906;53.282;9.508;2023-06-10T06:22:54;6.53;;;2.80;;
5762;SDS011;2906;53.282;9.508;2023-06-10T06:23:57;6.22;;;2.63;;
5762;SDS011;2906;53.282;9.508;2023-06-10T06:24:58;8.85;;;2.55;;
5762;SDS011;2906;53.282;9.508;2023-06-10T06:26:00;10.13;;;2.95;;
5762;SDS011;2906;53.282;9.508;2023-06-10T06:27:03;13.00;;;4.00;;